createdAt,value
2017-04-30T00:00:02.841Z,81.15
2017-04-30T00:15:02.753Z,80.64
2017-04-30T00:30:02.352Z,81.8
2017-04-30T00:45:02.921Z,81.67
2017-04-30T01:00:02.442Z,83.08
2017-04-30T01:15:02.658Z,82.92
2017-04-30T01:30:02.913Z,83.45
2017-04-30T01:45:02.015Z,83.85
2017-04-30T02:00:02.598Z,83.85
2017-04-30T02:15:02.362Z,83.51
2017-04-30T02:30:02.154Z,84.27
2017-04-30T02:45:02.196Z,83.92
2017-04-30T03:00:02.644Z,84.4
2017-04-30T03:15:02.588Z,84.82
2017-04-30T03:30:02.699Z,85.27
2017-04-30T03:45:02.033Z,85.41
2017-04-30T04:00:02.674Z,86.08
2017-04-30T04:15:02.893Z,86.51
2017-04-30T04:30:02.469Z,86.85
2017-04-30T04:45:02.959Z,87.16
2017-04-30T05:00:02.103Z,87.62
2017-04-30T05:15:02.795Z,88.77
2017-04-30T05:30:02.880Z,88.14
2017-04-30T05:45:02.607Z,89.01
2017-04-30T06:00:03.008Z,87.44
2017-04-30T06:15:02.694Z,86.65
2017-04-30T06:30:02.342Z,85.75
2017-04-30T06:45:02.194Z,84.91
2017-04-30T07:00:02.511Z,82.55
2017-04-30T07:15:02.132Z,80.28
2017-04-30T07:30:02.958Z,78.37
2017-04-30T07:45:02.349Z,72.72
2017-04-30T08:00:02.819Z,65.26
2017-04-30T08:15:02.834Z,58.75
2017-04-30T08:30:02.456Z,60.43
2017-04-30T08:45:02.019Z,59.7
2017-04-30T09:00:02.576Z,54.41
2017-04-30T09:15:02.668Z,49.95
2017-04-30T09:30:02.999Z,47.04
2017-04-30T09:45:02.014Z,44.06
2017-04-30T10:00:02.906Z,44.04
2017-04-30T10:15:02.108Z,42.79
2017-04-30T10:30:02.225Z,43.53
2017-04-30T10:45:02.828Z,43.41
2017-04-30T11:00:02.961Z,41.21
2017-04-30T11:15:02.887Z,42.82
2017-04-30T11:30:02.650Z,40.4
2017-04-30T11:45:02.771Z,41.62
2017-04-30T12:00:02.885Z,39.57
2017-04-30T12:15:02.819Z,39.78
2017-04-30T12:30:02.482Z,40.27
2017-04-30T12:45:02.948Z,39.33
2017-04-30T13:00:02.899Z,40.16
2017-04-30T13:15:02.941Z,39.95
2017-04-30T13:30:02.527Z,39.8
2017-04-30T13:45:02.341Z,39.12
2017-04-30T14:00:02.018Z,39.56
2017-04-30T14:15:02.415Z,39.12
2017-04-30T14:30:02.315Z,39.89
2017-04-30T14:45:03.093Z,38.14
2017-04-30T15:00:02.330Z,37.63
2017-04-30T15:15:02.894Z,37.77
2017-04-30T15:30:02.839Z,36.69
2017-04-30T15:45:02.659Z,38.58
2017-04-30T16:00:02.414Z,38.48
2017-04-30T16:15:02.610Z,38.73
2017-04-30T16:30:02.209Z,38.2
2017-04-30T16:45:02.710Z,39.42
2017-04-30T17:00:02.568Z,39.88
2017-04-30T17:15:02.753Z,40.29
2017-04-30T17:30:02.412Z,41.07
2017-04-30T17:45:02.521Z,43.63
2017-04-30T18:00:02.227Z,44.03
2017-04-30T18:15:03.005Z,44.82
2017-04-30T18:30:02.320Z,45.42
2017-04-30T18:45:02.745Z,46.52
2017-04-30T19:00:02.734Z,47.04
2017-04-30T19:15:02.232Z,47.84
2017-04-30T19:30:02.885Z,48.49
2017-04-30T19:45:02.985Z,50
2017-04-30T20:00:02.534Z,52.46
2017-04-30T20:15:02.266Z,55.95
2017-04-30T20:30:02.903Z,58.72
2017-04-30T20:45:02.465Z,60.34
2017-04-30T21:00:02.985Z,61.8
2017-04-30T21:15:02.065Z,62.58
2017-04-30T21:30:02.837Z,63.31
2017-04-30T21:45:02.292Z,63.36
2017-04-30T22:00:02.977Z,63.56
2017-04-30T22:15:02.039Z,63.86
2017-04-30T22:30:02.578Z,64.58
2017-04-30T22:45:01.996Z,65.12
2017-04-30T23:00:02.848Z,65.95
2017-04-30T23:15:02.852Z,67.05
2017-04-30T23:30:02.597Z,67.33
2017-04-30T23:45:02.062Z,68.47
